Terminal Aerodrome Forecast
Issued by NWS Portland, ME

Home | Current Version | Previous Version | Text Only | Print | Product List | Glossary On
Versions: 1 2 3 4 5 6 7 8 9 10 11 12 13 14 15 16 17 18 19 20 21 22 23 24 25
887
FTUS41 KGYX 030239 AAA
TAFPWM
TAF AMD
KPWM 030239Z 0303/0324 25008KT P6SM -SHRA BKN050 OVC080
     FM030305 29008KT P6SM SCT050 BKN080
     FM031500 33014G22KT P6SM BKN045 BKN080=

USA.gov is the U.S. government's official web portal to all federal, state and local government web resources and services.